Time;durP1;ratioP1;P1;durP2;ratioP2;P2;SDS_P1;SDS_P2;PMS_P1;PMS_P2;Temp;Humidity;BMP_temperature;BMP_pressure;BME280_temperature;BME280_humidity;BME280_pressure;Samples;Min_cycle;Max_cycle;Signal;HPM_P1;HPM_P2
2023/01/29 00:01:45;;;;;;;6.75;6.15;;;-0.90;99.90;;;;;;483472;242;27507;-75
2023/01/29 00:03:46;;;;;;;6.25;5.62;;;-1.00;99.90;;;;;;483440;245;27423;-74
2023/01/29 00:05:48;;;;;;;6.18;5.50;;;-0.90;99.90;;;;;;483345;245;27468;-75
2023/01/29 00:07:49;;;;;;;4.90;4.50;;;-1.20;99.90;;;;;;483488;245;27422;-74
2023/01/29 00:09:50;;;;;;;6.93;5.75;;;-1.10;99.90;;;;;;483278;245;27400;-74
2023/01/29 00:11:51;;;;;;;5.82;4.85;;;-0.90;99.90;;;;;;483474;245;27500;-74
2023/01/29 00:13:53;;;;;;;7.10;5.65;;;-1.00;99.90;;;;;;483470;245;27432;-75
2023/01/29 00:15:54;;;;;;;6.50;5.90;;;-1.10;99.90;;;;;;483423;245;27978;-74
2023/01/29 00:17:55;;;;;;;8.43;5.82;;;-1.10;99.90;;;;;;483482;245;27896;-75
2023/01/29 00:19:56;;;;;;;6.65;5.35;;;-1.00;99.90;;;;;;483439;245;28958;-75
2023/01/29 00:21:58;;;;;;;5.32;4.93;;;-0.90;99.90;;;;;;483272;245;27417;-75
2023/01/29 00:23:59;;;;;;;5.15;4.65;;;-0.90;99.90;;;;;;483473;245;27432;-76
2023/01/29 00:26:00;;;;;;;9.63;5.37;;;-0.80;99.90;;;;;;483419;245;27385;-74
2023/01/29 00:28:02;;;;;;;5.50;5.00;;;-0.70;99.90;;;;;;483483;245;27425;-75
2023/01/29 00:30:11;;;;;;;6.87;5.45;;;-0.60;99.90;;;;;;483478;245;27480;-74
2023/01/29 00:32:10;;;;;;;5.55;5.05;;;-0.60;99.90;;;;;;483225;246;27539;-74
2023/01/29 00:34:11;;;;;;;7.12;4.95;;;-0.60;99.90;;;;;;483455;245;28020;-74
2023/01/29 00:36:13;;;;;;;5.62;5.12;;;-0.60;99.90;;;;;;483334;245;29172;-74
2023/01/29 00:38:14;;;;;;;7.00;6.03;;;-0.60;99.90;;;;;;483414;245;27428;-74
2023/01/29 00:40:15;;;;;;;8.20;5.93;;;-0.50;99.90;;;;;;483465;245;27488;-74
2023/01/29 00:46:56;;;;;;;6.18;4.35;;;-0.80;99.90;;;;;;483395;246;27441;-74
2023/01/29 00:48:58;;;;;;;4.90;4.50;;;-0.70;99.90;;;;;;483471;245;27385;-74
2023/01/29 00:50:59;;;;;;;5.50;5.00;;;-0.60;99.90;;;;;;483445;245;27388;-74
2023/01/29 00:53:00;;;;;;;6.20;5.60;;;-0.70;99.90;;;;;;483333;246;27436;-74
2023/01/29 00:55:01;;;;;;;7.80;5.43;;;-0.90;99.90;;;;;;483410;245;27857;-75
2023/01/29 00:57:03;;;;;;;5.70;5.05;;;-0.90;99.90;;;;;;483435;246;28034;-74
2023/01/29 00:59:04;;;;;;;8.90;6.40;;;-0.80;99.90;;;;;;483391;245;27926;-74
2023/01/29 01:01:05;;;;;;;6.62;5.30;;;-1.10;99.90;;;;;;483382;245;27390;-74
2023/01/29 01:03:07;;;;;;;5.18;4.68;;;-1.10;99.90;;;;;;483295;245;27448;-74
2023/01/29 01:05:12;;;;;;;8.00;6.25;;;-1.00;99.90;;;;;;483085;245;27459;-74
2023/01/29 01:07:09;;;;;;;6.43;5.87;;;-1.10;99.90;;;;;;483188;246;27397;-74
2023/01/29 01:11:30;;;;;;;6.57;5.30;;;-1.30;99.90;;;;;;483400;246;27997;-75
2023/01/29 01:13:31;;;;;;;7.15;5.40;;;-1.20;99.90;;;;;;483417;246;27864;-74
2023/01/29 01:15:33;;;;;;;5.87;5.25;;;-1.40;99.90;;;;;;483470;245;27444;-74
2023/01/29 01:17:34;;;;;;;5.80;5.15;;;-1.30;99.90;;;;;;483421;246;27514;-74
2023/01/29 01:19:35;;;;;;;6.80;5.68;;;-1.30;99.90;;;;;;483421;245;27402;-74
2023/01/29 01:21:36;;;;;;;10.13;5.30;;;-1.40;99.90;;;;;;483355;246;27436;-74
2023/01/29 01:23:38;;;;;;;6.40;5.80;;;-1.30;99.90;;;;;;483481;246;27481;-74
2023/01/29 01:25:39;;;;;;;6.05;5.40;;;-1.30;99.90;;;;;;483402;245;27895;-73
2023/01/29 01:27:40;;;;;;;6.37;5.72;;;-1.30;99.90;;;;;;483457;245;27409;-74
2023/01/29 01:29:41;;;;;;;6.85;5.45;;;-1.30;99.90;;;;;;483340;245;27437;-74
2023/01/29 01:31:43;;;;;;;5.55;4.90;;;-1.20;99.90;;;;;;483436;245;27444;-74
2023/01/29 01:33:44;;;;;;;8.20;5.78;;;-1.20;99.90;;;;;;483462;245;27405;-74
2023/01/29 01:35:45;;;;;;;6.10;5.47;;;-1.20;99.90;;;;;;483353;245;27452;-73
2023/01/29 01:37:46;;;;;;;6.53;5.85;;;-1.30;99.90;;;;;;483444;245;27489;-74
2023/01/29 01:39:49;;;;;;;5.85;5.35;;;-1.30;99.90;;;;;;483437;245;27452;-74
2023/01/29 01:41:49;;;;;;;5.87;5.32;;;-1.40;99.90;;;;;;483338;246;27936;-74
2023/01/29 01:43:50;;;;;;;9.73;6.15;;;-1.40;99.90;;;;;;483501;245;27962;-74
2023/01/29 01:45:52;;;;;;;6.18;5.50;;;-1.30;99.90;;;;;;483363;245;28011;-74
2023/01/29 01:47:53;;;;;;;6.37;5.87;;;-1.30;99.90;;;;;;483461;245;27534;-74
2023/01/29 01:49:54;;;;;;;10.68;6.10;;;-1.30;99.90;;;;;;483495;245;27525;-74
2023/01/29 01:51:55;;;;;;;6.00;5.50;;;-1.20;99.90;;;;;;483394;245;27436;-74
2023/01/29 01:53:56;;;;;;;7.97;5.55;;;-1.20;99.90;;;;;;483476;245;27402;-74
2023/01/29 01:55:58;;;;;;;4.87;4.47;;;-1.20;99.90;;;;;;483364;245;27460;-74
2023/01/29 01:57:59;;;;;;;6.37;5.32;;;-1.10;99.90;;;;;;483482;245;27382;-74
2023/01/29 02:00:02;;;;;;;6.20;5.62;;;-1.00;99.90;;;;;;483477;245;27447;-74
2023/01/29 02:11:21;;;;;;;6.20;5.60;;;-1.30;99.90;;;;;;483460;245;29034;-73
2023/01/29 02:13:22;;;;;;;8.27;5.00;;;-1.30;99.90;;;;;;483380;245;29019;-75
2023/01/29 02:15:23;;;;;;;6.10;5.50;;;-1.50;99.90;;;;;;483400;245;27415;-74
2023/01/29 02:17:24;;;;;;;5.50;5.00;;;-1.50;99.90;;;;;;483433;245;27448;-74
2023/01/29 02:19:26;;;;;;;5.25;4.75;;;-1.40;99.90;;;;;;483371;245;27543;-74
2023/01/29 02:21:28;;;;;;;5.85;5.18;;;-1.50;99.90;;;;;;483334;245;27401;-74
2023/01/29 02:23:28;;;;;;;5.40;4.90;;;-1.60;99.90;;;;;;483355;246;27436;-74
2023/01/29 02:25:29;;;;;;;7.62;5.57;;;-1.60;99.90;;;;;;483381;245;27448;-74
2023/01/29 02:27:31;;;;;;;7.90;4.90;;;-1.60;99.90;;;;;;483449;245;27518;-74
2023/01/29 02:29:33;;;;;;;7.60;5.00;;;-1.40;99.90;;;;;;483454;245;28006;-74
2023/01/29 02:31:33;;;;;;;5.75;4.97;;;-1.30;99.90;;;;;;483412;246;28017;-74
2023/01/29 02:33:34;;;;;;;7.85;5.47;;;-1.20;99.90;;;;;;483425;245;29119;-75
2023/01/29 02:35:36;;;;;;;5.22;4.70;;;-1.40;99.90;;;;;;483414;245;27472;-74
2023/01/29 02:37:37;;;;;;;5.47;4.70;;;-1.30;99.90;;;;;;483503;245;27422;-74
2023/01/29 02:39:38;;;;;;;5.60;4.78;;;-1.30;99.90;;;;;;483384;245;27512;-74
2023/01/29 02:41:39;;;;;;;5.82;5.30;;;-1.30;99.90;;;;;;483487;246;27468;-74
2023/01/29 02:43:41;;;;;;;7.15;4.97;;;-1.30;99.90;;;;;;483501;245;27515;-74
2023/01/29 02:45:42;;;;;;;6.37;5.03;;;-1.40;99.90;;;;;;483435;245;27393;-74
2023/01/29 02:47:43;;;;;;;6.40;4.78;;;-1.50;99.90;;;;;;483456;245;27437;-74
2023/01/29 02:49:44;;;;;;;7.55;5.37;;;-1.40;99.90;;;;;;483434;245;28120;-73
2023/01/29 02:51:46;;;;;;;9.20;4.93;;;-1.40;99.90;;;;;;483471;245;27948;-74
2023/01/29 02:53:49;;;;;;;8.73;6.00;;;-1.30;99.90;;;;;;483445;245;28008;-74
2023/01/29 02:55:48;;;;;;;8.68;5.97;;;-1.40;99.90;;;;;;483319;245;27569;-73
2023/01/29 02:57:49;;;;;;;6.47;5.78;;;-1.50;99.90;;;;;;483394;246;27432;-74
2023/01/29 02:59:51;;;;;;;5.85;5.35;;;-1.50;99.90;;;;;;483411;245;27452;-75
2023/01/29 03:01:52;;;;;;;6.35;5.47;;;-1.50;99.90;;;;;;483362;245;27448;-74
2023/01/29 03:03:53;;;;;;;6.03;5.30;;;-1.40;99.90;;;;;;483430;245;27444;-75
2023/01/29 03:05:55;;;;;;;7.05;5.93;;;-1.30;99.90;;;;;;483443;245;27397;-74
2023/01/29 03:07:57;;;;;;;6.50;5.82;;;-1.20;99.90;;;;;;483361;245;27896;-74
2023/01/29 03:09:57;;;;;;;8.25;5.00;;;-1.20;99.90;;;;;;483360;245;27897;-74
2023/01/29 03:11:58;;;;;;;5.85;5.30;;;-1.30;99.90;;;;;;483444;245;27840;-74
2023/01/29 03:13:59;;;;;;;7.10;6.20;;;-1.40;99.90;;;;;;483461;246;27436;-74
2023/01/29 03:16:01;;;;;;;7.55;6.75;;;-1.50;99.90;;;;;;483445;245;27377;-74
2023/01/29 03:18:02;;;;;;;8.20;6.40;;;-1.60;99.90;;;;;;483451;245;27476;-74
2023/01/29 03:20:03;;;;;;;9.30;5.70;;;-1.70;99.90;;;;;;483503;245;27487;-74
2023/01/29 03:22:04;;;;;;;7.55;5.72;;;-1.80;99.90;;;;;;483396;245;27436;-74
2023/01/29 03:33:24;;;;;;;5.90;5.30;;;-1.60;99.90;;;;;;483469;245;27492;-73
2023/01/29 03:35:35;;;;;;;6.68;5.95;;;-1.50;99.90;;;;;;483494;245;27518;-74
2023/01/29 03:37:36;;;;;;;8.20;6.22;;;-1.40;99.90;;;;;;483395;245;28743;-74
2023/01/29 03:39:37;;;;;;;8.95;6.50;;;-1.40;99.90;;;;;;483454;245;27877;-74
2023/01/29 03:41:38;;;;;;;10.02;6.57;;;-1.40;99.90;;;;;;483364;245;27995;-74
2023/01/29 03:43:39;;;;;;;8.07;6.62;;;-1.40;99.90;;;;;;483439;245;27417;-74
2023/01/29 03:45:44;;;;;;;10.23;6.90;;;-1.50;99.90;;;;;;483428;245;27456;-74
2023/01/29 03:47:45;;;;;;;10.02;6.50;;;-1.60;99.90;;;;;;483413;245;27466;-74
2023/01/29 03:49:46;;;;;;;6.57;5.90;;;-1.60;99.90;;;;;;483397;245;27477;-74
2023/01/29 03:51:48;;;;;;;8.52;5.87;;;-1.40;99.90;;;;;;483370;246;27465;-74
2023/01/29 03:53:49;;;;;;;6.53;5.37;;;-1.40;99.90;;;;;;483290;245;27476;-74
2023/01/29 03:55:54;;;;;;;6.68;5.25;;;-1.70;99.90;;;;;;483277;245;28031;-74
2023/01/29 03:57:52;;;;;;;5.70;5.03;;;-1.70;99.90;;;;;;483193;246;28028;-74
2023/01/29 03:59:53;;;;;;;5.82;5.25;;;-1.50;99.90;;;;;;483344;245;29152;-74
2023/01/29 04:01:54;;;;;;;5.40;4.90;;;-1.40;99.90;;;;;;483380;245;27429;-74
2023/01/29 04:03:55;;;;;;;5.62;5.03;;;-1.40;99.90;;;;;;483361;245;27470;-74
2023/01/29 04:06:04;;;;;;;5.90;5.28;;;-1.30;99.90;;;;;;483396;245;27452;-74
2023/01/29 04:08:00;;;;;;;7.80;6.37;;;-1.20;99.90;;;;;;483190;246;27912;-75
2023/01/29 04:10:02;;;;;;;6.30;5.70;;;-1.20;99.90;;;;;;483420;245;27837;-74
2023/01/29 04:12:03;;;;;;;6.53;5.47;;;-1.20;99.90;;;;;;483421;245;27425;-74
2023/01/29 04:14:04;;;;;;;9.05;6.12;;;-1.20;99.90;;;;;;483452;245;27436;-74
2023/01/29 04:16:06;;;;;;;6.80;5.78;;;-1.30;99.90;;;;;;483378;245;27817;-74
2023/01/29 04:18:07;;;;;;;5.50;4.95;;;-1.30;99.90;;;;;;483440;245;27419;-75
2023/01/29 04:20:08;;;;;;;6.10;5.50;;;-1.40;99.90;;;;;;483396;245;27851;-74
2023/01/29 04:22:09;;;;;;;6.60;5.75;;;-1.30;99.90;;;;;;483466;245;27907;-74
2023/01/29 04:24:11;;;;;;;6.30;5.30;;;-1.20;99.90;;;;;;483488;245;29135;-74
2023/01/29 04:26:12;;;;;;;5.82;5.30;;;-1.20;99.90;;;;;;483404;245;27396;-74
2023/01/29 04:28:13;;;;;;;6.00;5.15;;;-1.20;99.90;;;;;;483470;245;27436;-74
2023/01/29 04:30:14;;;;;;;5.10;4.70;;;-1.20;99.90;;;;;;483396;245;27499;-74
2023/01/29 04:32:16;;;;;;;6.82;5.10;;;-1.20;99.90;;;;;;483411;245;27445;-74
2023/01/29 04:34:17;;;;;;;5.43;4.93;;;-1.20;99.90;;;;;;483384;245;27464;-74
2023/01/29 04:36:18;;;;;;;6.68;5.97;;;-1.20;99.90;;;;;;483416;245;27531;-74
2023/01/29 04:38:19;;;;;;;5.87;5.03;;;-1.20;99.90;;;;;;483472;245;27425;-74
2023/01/29 04:40:21;;;;;;;6.18;4.90;;;-1.20;99.90;;;;;;483440;245;27394;-74
2023/01/29 04:42:22;;;;;;;5.90;5.30;;;-1.20;99.90;;;;;;483396;245;27880;-74
2023/01/29 04:44:23;;;;;;;5.60;5.10;;;-1.20;99.90;;;;;;483439;245;29104;-74
2023/01/29 04:46:24;;;;;;;8.75;5.93;;;-1.20;99.90;;;;;;483477;245;27437;-74
2023/01/29 04:48:26;;;;;;;5.97;5.10;;;-1.10;99.90;;;;;;483410;246;27435;-74
2023/01/29 04:50:27;;;;;;;7.78;5.75;;;-1.10;99.90;;;;;;483455;245;27384;-74
2023/01/29 04:52:28;;;;;;;5.68;5.18;;;-1.30;99.90;;;;;;483422;245;27520;-74
2023/01/29 04:54:29;;;;;;;6.65;5.12;;;-1.20;99.90;;;;;;483464;245;27456;-75
2023/01/29 04:56:31;;;;;;;7.60;5.45;;;-1.20;99.90;;;;;;483469;245;27410;-74
2023/01/29 04:58:32;;;;;;;6.00;5.30;;;-1.30;99.90;;;;;;483451;245;27439;-75
2023/01/29 05:00:33;;;;;;;6.75;5.30;;;-1.30;99.90;;;;;;483461;245;27381;-74
2023/01/29 05:02:34;;;;;;;6.68;5.50;;;-1.30;99.90;;;;;;483431;245;27936;-74
2023/01/29 05:04:36;;;;;;;5.57;5.07;;;-1.50;99.90;;;;;;483413;246;29013;-74
2023/01/29 05:06:37;;;;;;;5.75;5.10;;;-1.40;99.90;;;;;;483423;245;27453;-74
2023/01/29 05:08:38;;;;;;;7.70;6.30;;;-1.40;99.90;;;;;;483427;245;27444;-74
2023/01/29 05:10:39;;;;;;;6.85;5.85;;;-1.30;99.90;;;;;;483466;245;27467;-73
2023/01/29 05:12:41;;;;;;;6.53;5.93;;;-1.30;99.90;;;;;;483433;246;27429;-74
2023/01/29 05:14:42;;;;;;;8.48;5.28;;;-1.30;99.90;;;;;;483441;246;27441;-75
2023/01/29 05:16:43;;;;;;;7.80;6.62;;;-1.30;99.90;;;;;;483399;245;27484;-74
2023/01/29 05:18:44;;;;;;;6.68;6.07;;;-1.20;99.90;;;;;;483470;245;27434;-74
2023/01/29 05:20:46;;;;;;;7.57;5.90;;;-1.20;99.90;;;;;;483437;245;27401;-74
2023/01/29 05:22:48;;;;;;;6.05;5.45;;;-1.20;99.90;;;;;;483418;245;27965;-74
2023/01/29 05:24:48;;;;;;;6.90;5.50;;;-1.30;99.90;;;;;;483413;245;27899;-74
2023/01/29 05:29:11;;;;;;;8.25;6.00;;;-1.30;99.90;;;;;;483437;246;27415;-74
2023/01/29 05:31:10;;;;;;;6.07;5.40;;;-1.40;99.90;;;;;;483319;246;27524;-75
2023/01/29 05:33:12;;;;;;;5.53;5.03;;;-1.40;99.90;;;;;;483445;245;27511;-74
2023/01/29 05:35:13;;;;;;;6.07;5.30;;;-1.30;99.90;;;;;;483434;246;27437;-74
2023/01/29 05:37:14;;;;;;;8.10;6.45;;;-1.40;99.90;;;;;;483265;245;27692;-74
2023/01/29 05:39:15;;;;;;;6.70;6.00;;;-1.40;99.90;;;;;;483447;245;27401;-74
2023/01/29 05:41:17;;;;;;;7.82;6.25;;;-1.60;99.90;;;;;;483399;245;27983;-75
2023/01/29 05:43:18;;;;;;;7.45;6.20;;;-1.60;99.90;;;;;;483501;245;29037;-74
2023/01/29 05:45:19;;;;;;;7.28;5.93;;;-1.70;99.90;;;;;;483459;245;29122;-74
2023/01/29 05:47:20;;;;;;;7.85;6.20;;;-1.90;99.90;;;;;;483459;245;27393;-74
2023/01/29 05:49:22;;;;;;;8.70;6.62;;;-1.90;99.90;;;;;;483492;245;27503;-74
2023/01/29 05:51:23;;;;;;;7.87;5.60;;;-2.00;99.90;;;;;;483355;245;27519;-74
2023/01/29 05:53:24;;;;;;;6.12;5.50;;;-2.10;99.90;;;;;;483463;245;27554;-74
2023/01/29 05:55:25;;;;;;;8.95;6.18;;;-1.90;99.90;;;;;;483467;245;27511;-74
2023/01/29 05:57:27;;;;;;;6.45;5.60;;;-1.70;99.90;;;;;;483408;245;27397;-74
2023/01/29 05:59:30;;;;;;;8.30;6.10;;;-1.60;99.90;;;;;;483476;245;27445;-74
2023/01/29 06:01:29;;;;;;;6.78;6.03;;;-1.50;99.90;;;;;;483388;245;27931;-74
2023/01/29 06:03:30;;;;;;;8.10;6.60;;;-1.50;99.90;;;;;;483436;245;27966;-74
2023/01/29 06:05:32;;;;;;;7.75;5.80;;;-1.40;99.90;;;;;;483422;245;27910;-74
2023/01/29 06:07:33;;;;;;;6.68;5.93;;;-1.40;99.90;;;;;;483472;245;27468;-74
2023/01/29 06:09:34;;;;;;;7.15;6.07;;;-1.30;99.90;;;;;;483431;245;27436;-74
2023/01/29 06:11:35;;;;;;;8.70;5.40;;;-1.50;99.90;;;;;;483440;245;27506;-74
2023/01/29 06:13:37;;;;;;;6.90;5.97;;;-1.50;99.90;;;;;;483447;245;27424;-74
2023/01/29 06:15:38;;;;;;;7.85;6.10;;;-1.50;99.90;;;;;;483409;245;27444;-74
2023/01/29 06:17:39;;;;;;;7.28;6.55;;;-1.40;99.90;;;;;;483487;245;27419;-74
2023/01/29 06:19:40;;;;;;;7.20;5.85;;;-1.40;99.90;;;;;;483430;245;27436;-74
2023/01/29 06:21:42;;;;;;;11.65;5.45;;;-1.40;99.90;;;;;;483472;245;27932;-73
2023/01/29 06:23:43;;;;;;;7.47;5.62;;;-1.30;99.90;;;;;;483413;245;27860;-74
2023/01/29 06:25:44;;;;;;;7.78;5.62;;;-1.40;99.90;;;;;;483475;245;27519;-74
2023/01/29 06:27:45;;;;;;;6.53;5.72;;;-1.40;99.90;;;;;;483490;245;27472;-74
2023/01/29 06:29:47;;;;;;;9.20;7.82;;;-1.40;99.90;;;;;;483434;245;27436;-75
2023/01/29 06:31:48;;;;;;;8.57;6.37;;;-1.50;99.90;;;;;;483479;245;27424;-74
2023/01/29 06:33:49;;;;;;;9.98;6.03;;;-1.70;99.90;;;;;;483507;245;27489;-74
2023/01/29 06:35:50;;;;;;;5.70;5.20;;;-1.80;99.90;;;;;;483445;245;27488;-74
2023/01/29 06:37:52;;;;;;;7.20;5.65;;;-1.70;99.90;;;;;;483504;245;27397;-74
2023/01/29 06:39:53;;;;;;;5.65;5.15;;;-1.60;99.90;;;;;;483457;245;27448;-74
2023/01/29 06:41:54;;;;;;;6.12;5.53;;;-1.50;99.90;;;;;;483504;245;28115;-73
2023/01/29 06:43:55;;;;;;;7.85;6.47;;;-1.50;99.90;;;;;;483513;245;27847;-74
2023/01/29 06:45:57;;;;;;;7.32;5.62;;;-1.50;99.90;;;;;;483441;245;27462;-74
2023/01/29 06:47:58;;;;;;;7.65;6.60;;;-1.40;99.90;;;;;;483434;245;27496;-74
2023/01/29 06:49:59;;;;;;;7.50;6.37;;;-1.50;99.90;;;;;;483480;246;27436;-74
2023/01/29 06:52:00;;;;;;;7.10;6.15;;;-1.50;99.90;;;;;;483400;245;27416;-73
2023/01/29 06:54:02;;;;;;;6.72;6.03;;;-1.50;99.90;;;;;;483457;245;27413;-74
2023/01/29 06:56:03;;;;;;;6.55;5.90;;;-1.40;99.90;;;;;;483448;245;27557;-74
2023/01/29 06:58:04;;;;;;;7.22;6.22;;;-1.40;99.90;;;;;;483482;245;27464;-74
2023/01/29 07:00:05;;;;;;;8.75;6.93;;;-1.40;99.90;;;;;;483464;245;27538;-74
2023/01/29 07:02:07;;;;;;;7.05;5.62;;;-1.40;99.90;;;;;;483455;245;28120;-74
2023/01/29 07:04:08;;;;;;;9.13;5.60;;;-1.40;99.90;;;;;;483498;245;28948;-74
2023/01/29 07:06:09;;;;;;;10.25;6.50;;;-1.40;99.90;;;;;;483449;245;27417;-74
2023/01/29 07:08:10;;;;;;;8.38;6.22;;;-1.40;99.90;;;;;;483464;245;27491;-74
2023/01/29 07:10:12;;;;;;;7.60;5.85;;;-1.40;99.90;;;;;;483428;245;27425;-74
2023/01/29 07:12:13;;;;;;;7.55;6.35;;;-1.40;99.90;;;;;;483447;245;27888;-75
2023/01/29 07:14:14;;;;;;;8.00;5.90;;;-1.50;99.90;;;;;;483457;245;27440;-75
2023/01/29 07:16:16;;;;;;;10.52;6.50;;;-1.70;99.90;;;;;;483398;246;27437;-74
2023/01/29 07:18:17;;;;;;;5.62;5.00;;;-1.60;99.90;;;;;;483404;245;27468;-74
2023/01/29 07:20:18;;;;;;;8.00;7.10;;;-1.60;99.90;;;;;;483393;245;27893;-74
2023/01/29 07:22:19;;;;;;;9.27;6.37;;;-1.50;99.90;;;;;;483433;245;27915;-75
2023/01/29 07:24:20;;;;;;;7.25;5.65;;;-1.50;99.90;;;;;;483423;245;29117;-74
2023/01/29 07:26:22;;;;;;;8.85;6.20;;;-1.50;99.90;;;;;;483433;245;27520;-74
2023/01/29 07:28:23;;;;;;;8.93;6.60;;;-1.50;99.90;;;;;;483148;245;27523;-74
2023/01/29 07:30:24;;;;;;;7.60;6.18;;;-1.50;99.90;;;;;;483068;245;27559;-74
2023/01/29 07:32:26;;;;;;;6.60;5.82;;;-1.50;99.90;;;;;;483424;245;27434;-75
2023/01/29 07:34:27;;;;;;;6.47;5.70;;;-1.40;99.90;;;;;;483454;245;27408;-74
2023/01/29 07:36:28;;;;;;;9.02;6.22;;;-1.40;99.90;;;;;;483486;245;27528;-74
2023/01/29 07:38:29;;;;;;;11.18;6.95;;;-1.50;99.90;;;;;;483445;245;27448;-74
2023/01/29 07:40:30;;;;;;;7.53;5.65;;;-1.40;99.90;;;;;;483481;245;27897;-74
2023/01/29 07:42:32;;;;;;;8.00;6.10;;;-1.50;99.90;;;;;;483447;245;27924;-74
2023/01/29 07:44:33;;;;;;;6.68;5.97;;;-1.50;99.90;;;;;;483009;246;27901;-74
2023/01/29 07:46:34;;;;;;;7.90;6.30;;;-1.50;99.90;;;;;;482439;246;27429;-74
2023/01/29 07:48:36;;;;;;;6.15;5.55;;;-1.50;99.90;;;;;;477354;249;27541;-74
2023/01/29 07:50:37;;;;;;;6.10;5.50;;;-1.50;99.90;;;;;;481349;247;27398;-75
2023/01/29 07:52:38;;;;;;;5.95;5.25;;;-1.50;99.90;;;;;;481355;247;27434;-74
2023/01/29 07:54:39;;;;;;;9.40;6.05;;;-1.50;99.90;;;;;;481310;247;27415;-74
2023/01/29 07:56:41;;;;;;;6.93;6.05;;;-1.50;99.90;;;;;;481341;247;27446;-73
2023/01/29 07:58:42;;;;;;;8.57;6.62;;;-1.50;99.90;;;;;;481350;247;27546;-76
2023/01/29 08:00:43;;;;;;;7.57;6.18;;;-1.50;99.90;;;;;;481334;247;27969;-74
2023/01/29 08:02:44;;;;;;;9.02;6.95;;;-1.50;99.90;;;;;;481370;247;27996;-75
2023/01/29 08:04:46;;;;;;;8.45;6.37;;;-1.60;99.90;;;;;;481301;247;27956;-75
2023/01/29 08:06:47;;;;;;;10.25;6.00;;;-1.50;99.90;;;;;;481338;247;27431;-75
2023/01/29 08:08:48;;;;;;;8.65;6.80;;;-1.50;99.90;;;;;;481372;247;27500;-75
2023/01/29 08:10:49;;;;;;;9.45;6.28;;;-1.50;99.90;;;;;;481335;247;27409;-75
2023/01/29 08:12:51;;;;;;;8.30;6.25;;;-1.50;99.90;;;;;;481376;247;27446;-75
2023/01/29 08:14:52;;;;;;;7.10;6.35;;;-1.50;99.90;;;;;;481333;247;27402;-75
2023/01/29 08:16:53;;;;;;;11.35;7.32;;;-1.50;99.90;;;;;;481357;247;27442;-74
2023/01/29 08:18:54;;;;;;;18.37;7.10;;;-1.50;99.90;;;;;;482745;240;27500;-74
2023/01/29 08:20:56;;;;;;;9.98;7.90;;;-1.40;99.90;;;;;;483286;246;27948;-75
2023/01/29 08:22:57;;;;;;;11.02;8.25;;;-1.40;99.90;;;;;;493523;239;28722;-75
2023/01/29 08:24:58;;;;;;;8.13;6.70;;;-1.30;99.90;;;;;;493352;239;27494;-75
2023/01/29 08:26:59;;;;;;;10.95;7.97;;;-1.40;99.90;;;;;;493292;239;27495;-74
2023/01/29 08:29:01;;;;;;;8.50;7.68;;;-1.40;99.90;;;;;;493366;239;27383;-74
2023/01/29 08:31:02;;;;;;;9.60;7.50;;;-1.40;99.90;;;;;;493332;239;27336;-74
2023/01/29 08:33:03;;;;;;;10.45;8.48;;;-1.40;99.90;;;;;;493339;239;27454;-75
2023/01/29 08:35:04;;;;;;;9.90;8.30;;;-1.40;99.90;;;;;;493366;239;27411;-75
2023/01/29 08:37:06;;;;;;;15.68;9.50;;;-1.30;99.90;;;;;;493315;239;27992;-74
2023/01/29 08:39:07;;;;;;;10.68;8.55;;;-1.30;99.90;;;;;;493247;239;27879;-76
2023/01/29 08:41:08;;;;;;;8.95;8.00;;;-1.30;99.90;;;;;;493358;239;29109;-75
2023/01/29 08:43:09;;;;;;;7.95;6.75;;;-1.20;99.90;;;;;;485673;239;27502;-74
2023/01/29 08:45:11;;;;;;;9.27;7.20;;;-1.20;99.90;;;;;;487878;244;27498;-74
2023/01/29 08:47:12;;;;;;;8.63;7.20;;;-1.20;99.90;;;;;;487859;244;27526;-73
2023/01/29 08:49:13;;;;;;;9.68;7.75;;;-1.30;99.90;;;;;;487900;244;27552;-74
2023/01/29 08:51:14;;;;;;;7.65;6.37;;;-1.30;99.90;;;;;;487823;244;27586;-74
2023/01/29 08:53:17;;;;;;;8.27;6.10;;;-1.30;99.90;;;;;;471576;252;27494;-74
2023/01/29 08:55:17;;;;;;;9.38;5.93;;;-1.40;99.90;;;;;;471486;252;27525;-73
2023/01/29 08:57:18;;;;;;;6.30;5.70;;;-1.40;99.90;;;;;;471529;252;27975;-73
2023/01/29 08:59:21;;;;;;;10.00;6.75;;;-1.40;99.90;;;;;;471557;252;27952;-74
2023/01/29 09:01:21;;;;;;;8.63;6.10;;;-1.40;99.90;;;;;;471481;252;27437;-74
2023/01/29 09:03:22;;;;;;;7.03;6.32;;;-1.40;99.90;;;;;;471502;252;27473;-76
2023/01/29 09:05:23;;;;;;;8.02;6.03;;;-1.40;99.90;;;;;;471305;252;27477;-75
2023/01/29 09:07:24;;;;;;;10.82;7.82;;;-1.30;99.90;;;;;;471569;252;27477;-74
2023/01/29 09:09:26;;;;;;;13.55;8.73;;;-1.30;99.90;;;;;;471529;252;27489;-74
2023/01/29 09:11:27;;;;;;;14.40;11.32;;;-1.30;99.90;;;;;;471528;252;27520;-74
2023/01/29 09:13:28;;;;;;;8.85;7.93;;;-1.20;99.90;;;;;;471543;252;27513;-74
2023/01/29 09:15:29;;;;;;;8.48;7.50;;;-1.10;99.90;;;;;;471509;252;27974;-74
2023/01/29 09:17:31;;;;;;;9.55;7.90;;;-1.10;99.90;;;;;;471517;252;29064;-74
2023/01/29 09:19:32;;;;;;;7.87;6.90;;;-1.10;99.90;;;;;;471553;252;27549;-74
2023/01/29 09:21:33;;;;;;;7.82;6.90;;;-1.00;99.90;;;;;;471544;252;27453;-74
2023/01/29 09:23:34;;;;;;;9.27;6.80;;;-0.90;99.90;;;;;;471551;252;27473;-74
2023/01/29 09:25:36;;;;;;;9.45;7.20;;;-0.90;99.90;;;;;;471548;252;27477;-75
2023/01/29 09:27:37;;;;;;;9.65;8.13;;;-0.80;99.90;;;;;;471517;252;27449;-74
2023/01/29 09:29:38;;;;;;;8.50;7.60;;;-0.70;99.90;;;;;;471520;252;27477;-75
2023/01/29 09:31:39;;;;;;;9.90;8.30;;;-0.70;99.90;;;;;;471534;252;27517;-74
2023/01/29 09:33:41;;;;;;;7.35;6.65;;;-0.60;99.90;;;;;;471526;252;27546;-74
2023/01/29 09:35:42;;;;;;;7.53;6.32;;;-0.50;99.90;;;;;;471510;248;28049;-75
2023/01/29 09:37:43;;;;;;;7.78;6.40;;;-0.40;99.90;;;;;;471568;252;28991;-74
2023/01/29 09:39:44;;;;;;;8.63;7.07;;;-0.30;99.90;;;;;;471521;252;27484;-74
2023/01/29 09:41:48;;;;;;;11.27;9.40;;;-0.20;99.90;;;;;;471540;252;27504;-74
2023/01/29 09:43:47;;;;;;;8.10;6.72;;;-0.20;99.90;;;;;;471509;252;27484;-75
2023/01/29 09:45:48;;;;;;;6.90;5.65;;;0.00;99.90;;;;;;471530;252;27907;-74
2023/01/29 09:47:50;;;;;;;12.25;6.93;;;0.10;99.90;;;;;;471541;252;28019;-75
2023/01/29 09:49:51;;;;;;;7.90;6.28;;;0.30;99.90;;;;;;471572;252;27972;-75
2023/01/29 09:51:52;;;;;;;6.45;5.62;;;0.40;99.90;;;;;;471480;252;27889;-74
2023/01/29 09:53:53;;;;;;;6.50;5.90;;;0.40;99.90;;;;;;471585;252;27941;-75
2023/01/29 09:55:55;;;;;;;6.68;5.57;;;0.40;99.90;;;;;;471541;252;27474;-75
2023/01/29 09:57:56;;;;;;;7.60;5.90;;;0.50;99.90;;;;;;471577;252;27437;-74
2023/01/29 09:59:57;;;;;;;9.50;6.03;;;0.50;99.90;;;;;;471594;252;27474;-75
2023/01/29 10:01:59;;;;;;;6.35;5.68;;;0.50;99.90;;;;;;471539;252;27446;-75
2023/01/29 10:04:00;;;;;;;8.32;6.15;;;0.60;99.90;;;;;;471485;252;27495;-75
2023/01/29 10:06:01;;;;;;;8.25;5.65;;;0.60;99.90;;;;;;471567;252;27496;-75
2023/01/29 10:08:02;;;;;;;6.62;5.53;;;0.70;99.90;;;;;;471531;252;27450;-75
2023/01/29 10:10:04;;;;;;;6.50;5.90;;;0.60;99.90;;;;;;471512;252;27464;-75
2023/01/29 10:12:05;;;;;;;7.18;5.93;;;0.60;99.90;;;;;;471519;252;27477;-74
2023/01/29 10:14:06;;;;;;;7.18;6.47;;;0.50;99.90;;;;;;471199;252;27599;-75
2023/01/29 10:16:07;;;;;;;6.35;5.75;;;0.60;99.90;;;;;;471356;252;28020;-74
2023/01/29 10:18:08;;;;;;;6.12;5.53;;;0.60;99.90;;;;;;471549;252;27984;-74
2023/01/29 10:20:10;;;;;;;6.47;5.68;;;0.70;99.90;;;;;;471553;252;27975;-75
2023/01/29 10:22:11;;;;;;;7.03;5.45;;;0.60;99.90;;;;;;471587;252;27968;-74
2023/01/29 10:24:12;;;;;;;7.97;6.22;;;0.70;99.90;;;;;;471544;252;27553;-74
2023/01/29 10:26:13;;;;;;;8.20;6.03;;;0.70;99.90;;;;;;471576;252;27465;-75
2023/01/29 10:28:15;;;;;;;6.70;5.50;;;0.60;99.90;;;;;;471558;252;27473;-74
2023/01/29 10:30:16;;;;;;;6.53;5.47;;;0.50;99.90;;;;;;471563;252;27485;-75
2023/01/29 10:32:17;;;;;;;6.50;5.10;;;0.50;99.90;;;;;;471557;252;27421;-75
2023/01/29 10:34:18;;;;;;;5.87;5.25;;;0.50;99.90;;;;;;471530;252;27573;-75
2023/01/29 10:36:20;;;;;;;6.90;5.62;;;0.50;99.90;;;;;;471559;252;27484;-74
2023/01/29 10:38:21;;;;;;;7.62;5.35;;;0.40;99.90;;;;;;471572;252;27505;-74
2023/01/29 10:40:22;;;;;;;7.05;5.35;;;0.40;99.90;;;;;;471540;252;27474;-74
2023/01/29 10:42:23;;;;;;;6.95;5.57;;;0.30;99.90;;;;;;471544;252;27437;-74
2023/01/29 10:44:25;;;;;;;6.72;5.70;;;0.30;99.90;;;;;;471529;252;27488;-75
2023/01/29 10:46:26;;;;;;;7.32;5.82;;;0.30;99.90;;;;;;471554;252;27984;-74
2023/01/29 10:48:27;;;;;;;6.87;5.68;;;0.30;99.90;;;;;;471564;252;27993;-74
2023/01/29 10:50:28;;;;;;;7.70;5.75;;;0.20;99.90;;;;;;471530;252;28008;-74
2023/01/29 10:52:30;;;;;;;7.35;6.10;;;0.20;99.90;;;;;;471588;252;28009;-74
2023/01/29 10:54:31;;;;;;;10.20;5.43;;;0.20;99.90;;;;;;471537;252;27491;-74
2023/01/29 10:56:32;;;;;;;6.62;5.25;;;0.20;99.90;;;;;;471501;252;27498;-75
2023/01/29 10:58:33;;;;;;;6.00;5.40;;;0.20;99.90;;;;;;471588;252;27493;-75
2023/01/29 11:00:35;;;;;;;5.97;5.37;;;0.20;99.90;;;;;;471546;252;27480;-74